Terminal Aerodrome Forecast
Issued by NWS Melbourne, FL

Home | Current Version | Previous Version | Text Only | Print | Product List | Glossary On
Versions: 1 2 3 4 5 6 7 8 9 10 11 12 13 14 15
000
FTUS42 KMLB 252340
TAFDAB
TAF
KDAB 252340Z 2600/2624 05009KT P6SM FEW020 SCT035
     FM260300 07005KT P6SM VCSH SCT025
     FM261400 06012KT P6SM SCT025 BKN250=

USA.gov is the U.S. government's official web portal to all federal, state and local government web resources and services.